Roxas, Philippines
Current Conditions -  °F | °C
As of 9:00 AM on Wednesday 28 Jan 2015 (Local Time) from RPVM Reporting Station
Few Clouds Few Clouds  
Wind Chill: 82°   Ceiling: Unl
Heat Index: 89°   Visibility: 6mi
Dew Point: 75°   Wind: 14mph
Humidity: 79%   Direction: 40°NE
Pressure: 29.91"   Gusts: NA
Location:  11.6°N, 122.75°E
Report Text: RPVM 280100Z 04012KT 9999 FEW020 28/24 Q1013 RMK A2991
Loading
Personal Weather Stations






























Interactive Weather Map New forecast layout! Learn more

10-Day Weather Forecast

Advertisements
Track Severe Weather on mobile